Time;durP1;ratioP1;P1;durP2;ratioP2;P2;SDS_P1;SDS_P2;PMS_P1;PMS_P2;Temp;Humidity;BMP_temperature;BMP_pressure;BME280_temperature;BME280_humidity;BME280_pressure;Samples;Min_cycle;Max_cycle;Signal;HPM_P1;HPM_P2
2022/06/15 09:01:32;;;;;;;5.70;1.87;;;;;;;18.27;58.32;100407.72;6265423;22;20211;-75
2022/06/15 09:04:21;;;;;;;8.33;1.80;;;;;;;18.10;59.96;100407.19;5282784;22;20211;-72
2022/06/15 09:07:06;;;;;;;5.50;1.87;;;;;;;18.06;60.40;100413.97;5223975;22;20278;-70
2022/06/15 09:09:51;;;;;;;5.27;1.60;;;;;;;17.88;60.35;100411.75;5239120;22;21360;-73
2022/06/15 09:13:00;;;;;;;7.03;1.50;;;;;;;18.03;58.91;100415.19;5245862;22;20234;-80
2022/06/15 09:16:04;;;;;;;6.70;1.40;;;;;;;18.02;58.78;100418.06;5282028;22;20282;-80
2022/06/15 09:18:47;;;;;;;5.97;1.70;;;;;;;18.19;59.81;100415.94;5209312;22;20211;-80
2022/06/15 09:21:26;;;;;;;6.53;2.00;;;;;;;18.55;60.49;100408.53;5181261;22;21456;-78
2022/06/15 09:24:14;;;;;;;12.10;2.27;;;;;;;18.73;58.57;100415.25;5281925;22;20929;-80
2022/06/15 09:26:49;;;;;;;6.00;1.30;;;;;;;18.68;58.00;100421.25;5253511;22;20210;-82
2022/06/15 09:29:27;;;;;;;5.33;1.70;;;;;;;18.68;57.73;100412.31;5241428;22;22363;-80
2022/06/15 09:32:01;;;;;;;6.73;1.50;;;;;;;19.05;55.06;100418.34;5200256;22;20212;-79
2022/06/15 09:34:39;;;;;;;5.03;1.20;;;;;;;19.35;51.53;100433.19;5231079;22;20203;-82
2022/06/15 09:37:12;;;;;;;3.70;1.00;;;;;;;19.30;49.45;100432.16;5231836;22;22229;-80
2022/06/15 09:39:40;;;;;;;2.60;1.00;;;;;;;19.04;50.81;100416.69;5235385;22;21492;-77
2022/06/15 09:42:20;;;;;;;4.03;1.00;;;;;;;19.29;50.26;100420.53;5223371;22;20208;-76
2022/06/15 09:45:25;;;;;;;4.50;1.07;;;;;;;19.67;50.14;100422.69;5257918;22;20842;-82
2022/06/15 09:48:03;;;;;;;3.70;1.17;;;;;;;20.12;49.45;100431.09;5246648;22;20214;-82
2022/06/15 09:50:43;;;;;;;3.77;1.33;;;;;;;19.88;53.54;100421.72;5250629;22;20204;-82
2022/06/15 09:53:31;;;;;;;6.60;1.53;;;;;;;19.53;56.12;100416.44;5383034;22;22746;-83
2022/06/15 09:56:01;;;;;;;6.53;1.50;;;;;;;19.86;56.01;100415.69;5375695;22;20319;-80
2022/06/15 09:59:04;;;;;;;6.43;1.60;;;;;;;19.30;56.27;100414.09;5240195;22;21301;-83
2022/06/15 10:01:37;;;;;;;3.77;1.90;;;;;;;19.37;54.93;100412.25;5227173;22;21556;-83
2022/06/15 10:04:06;;;;;;;4.93;1.37;;;;;;;19.35;54.79;100410.78;5221915;22;20286;-79
2022/06/15 10:06:59;;;;;;;5.40;1.67;;;;;;;19.77;54.80;100419.63;5180706;22;20264;-79
2022/06/15 10:09:30;;;;;;;7.33;1.50;;;;;;;19.90;54.22;100419.66;5165258;22;20215;-76
2022/06/15 10:14:48;;;;;;;5.27;1.57;;;;;;;19.99;52.31;100425.66;5216458;22;20257;-77
2022/06/15 10:17:31;;;;;;;6.30;1.57;;;;;;;20.11;52.66;100415.91;5216130;22;20211;-76
2022/06/15 10:19:58;;;;;;;5.63;1.30;;;;;;;20.03;49.85;100426.91;5239496;22;20212;-77
2022/06/15 10:22:32;;;;;;;5.97;1.30;;;;;;;19.92;50.18;100425.66;5242257;22;22742;-76
2022/06/15 10:24:59;;;;;;;4.27;1.40;;;;;;;20.19;49.74;100426.50;5309189;22;21886;-77
2022/06/15 10:27:41;;;;;;;4.93;1.47;;;;;;;20.42;49.95;100414.44;5243811;22;20242;-75
2022/06/15 10:30:08;;;;;;;5.50;1.43;;;;;;;20.65;49.34;100420.25;5182927;22;22805;-78
2022/06/15 10:32:37;;;;;;;7.43;1.60;;;;;;;20.50;50.51;100418.78;5251002;22;21213;-78
2022/06/15 10:35:13;;;;;;;6.60;1.20;;;;;;;20.74;50.73;100418.13;5258269;22;20237;-76
2022/06/15 10:37:43;;;;;;;5.43;1.20;;;;;;;20.76;47.17;100420.63;5358990;22;20205;-78
2022/06/15 10:40:21;;;;;;;3.60;1.43;;;;;;;20.91;47.81;100407.69;5216085;22;20311;-77
2022/06/15 10:43:16;;;;;;;3.47;1.30;;;;;;;20.66;47.50;100413.78;5263970;22;21396;-77
2022/06/15 10:46:04;;;;;;;4.90;1.30;;;;;;;20.07;49.48;100411.13;5159610;22;20291;-80
2022/06/15 10:48:57;;;;;;;6.37;1.57;;;;;;;19.53;51.09;100415.63;5192450;22;20201;-78
2022/06/15 10:51:35;;;;;;;4.00;1.40;;;;;;;19.65;51.63;100418.56;5180294;22;20650;-79
2022/06/15 10:54:29;;;;;;;3.20;1.20;;;;;;;19.56;49.74;100416.03;5219415;22;20400;-75
2022/06/15 11:02:47;;;;;;;8.60;2.50;;;;;;;18.04;59.43;100414.16;5194501;22;21955;-76
2022/06/15 11:05:23;;;;;;;9.13;1.90;;;;;;;17.97;60.41;100410.59;5206527;22;22958;-77
2022/06/15 11:07:54;;;;;;;7.13;1.73;;;;;;;17.64;61.91;100405.69;5191410;22;20561;-77
2022/06/15 11:10:35;;;;;;;5.60;1.83;;;;;;;17.36;62.88;100408.28;5190783;22;20209;-75
2022/06/15 11:13:27;;;;;;;6.73;1.80;;;;;;;17.45;64.08;100403.63;5182846;22;20242;-79
2022/06/15 11:18:44;;;;;;;7.30;1.70;;;;;;;17.75;65.02;100400.81;5230440;22;20408;-80
2022/06/15 11:21:20;;;;;;;4.97;1.97;;;;;;;17.75;65.73;100398.13;5195463;22;21760;-77
2022/06/15 11:23:50;;;;;;;5.73;1.80;;;;;;;18.00;65.21;100404.78;5223886;22;20212;-77
2022/06/15 11:29:39;;;;;;;8.30;2.20;;;;;;;18.59;62.53;100406.28;5221987;22;20207;-78
2022/06/15 11:32:24;;;;;;;6.03;2.20;;;;;;;18.96;60.44;100399.66;5166821;22;20287;-79
2022/06/15 11:34:53;;;;;;;4.17;1.90;;;;;;;18.91;60.27;100399.41;5210239;22;20198;-79
2022/06/15 11:37:26;;;;;;;9.20;1.87;;;;;;;19.05;57.14;100402.16;5247301;22;21749;-77
2022/06/15 11:40:06;;;;;;;6.23;1.83;;;;;;;18.92;55.87;100395.69;5214047;22;20801;-76
2022/06/15 11:42:33;;;;;;;5.43;1.17;;;;;;;19.29;55.44;100404.34;5247305;22;22736;-76
2022/06/15 11:45:02;;;;;;;2.97;1.47;;;;;;;19.37;56.35;100398.75;5208464;22;20214;-76
2022/06/15 11:47:42;;;;;;;8.20;2.00;;;;;;;19.51;56.96;100399.63;5198304;22;20201;-76
2022/06/15 11:50:19;;;;;;;3.03;1.40;;;;;;;19.51;55.47;100396.09;5243665;22;20216;-78
2022/06/15 11:52:59;;;;;;;5.90;1.50;;;;;;;19.61;54.83;100399.22;5223030;22;26431;-77
2022/06/15 11:55:42;;;;;;;3.77;1.50;;;;;;;19.53;55.69;100394.03;5269687;22;20213;-75
2022/06/15 11:58:26;;;;;;;5.63;1.57;;;;;;;19.42;55.02;100387.34;5249739;22;20859;-77
2022/06/15 12:00:56;;;;;;;4.77;1.70;;;;;;;19.54;55.58;100398.38;5241115;22;20214;-74
2022/06/15 12:03:39;;;;;;;7.10;1.93;;;;;;;19.31;56.83;100399.56;5193679;22;20246;-79
2022/06/15 12:06:15;;;;;;;9.57;1.80;;;;;;;19.02;57.74;100394.50;5208184;22;21639;-79
2022/06/15 12:08:47;;;;;;;5.90;2.20;;;;;;;18.75;58.71;100392.47;5186552;22;20204;-79
2022/06/15 12:14:26;;;;;;;5.43;1.90;;;;;;;18.92;59.19;100393.00;5212087;22;21271;-78
2022/06/15 12:17:00;;;;;;;3.10;1.60;;;;;;;18.81;58.07;100390.88;5228383;22;20205;-81
2022/06/15 12:20:05;;;;;;;6.87;1.70;;;;;;;18.64;58.80;100394.91;5185045;22;20202;-79
2022/06/15 12:22:50;;;;;;;8.43;1.80;;;;;;;18.63;59.59;100395.91;5196323;22;22204;-82
2022/06/15 12:25:45;;;;;;;4.40;1.37;;;;;;;19.00;58.36;100391.16;5266610;22;20213;-81
2022/06/15 12:28:26;;;;;;;4.53;1.50;;;;;;;19.32;56.44;100393.13;5245643;22;22627;-79
2022/06/15 12:31:05;;;;;;;3.47;1.40;;;;;;;19.56;53.25;100394.44;5208335;22;25582;-79
2022/06/15 12:33:48;;;;;;;7.40;1.43;;;;;;;19.71;54.28;100396.97;5270868;22;20201;-78
2022/06/15 12:36:29;;;;;;;3.40;1.50;;;;;;;19.94;54.31;100395.75;5214721;22;20817;-80
2022/06/15 12:39:02;;;;;;;4.27;1.57;;;;;;;20.00;52.07;100392.22;5218230;22;20313;-80
2022/06/15 12:45:03;;;;;;;6.10;1.47;;;;;;;20.24;52.53;100388.88;5166656;22;20288;-79
2022/06/15 12:47:30;;;;;;;8.87;1.67;;;;;;;20.44;51.03;100390.75;5198136;22;20300;-81
2022/06/15 12:50:17;;;;;;;5.60;1.37;;;;;;;20.49;49.92;100387.41;5170226;22;20206;-74
2022/06/15 12:52:59;;;;;;;4.67;1.40;;;;;;;20.51;49.58;100383.44;5184563;22;20204;-75
2022/06/15 12:56:07;;;;;;;2.90;1.30;;;;;;;20.38;50.36;100389.69;5186530;22;20212;-79
2022/06/15 12:58:55;;;;;;;4.80;1.30;;;;;;;20.01;51.78;100385.78;5257795;22;20267;-79
2022/06/15 13:01:25;;;;;;;2.57;1.40;;;;;;;19.68;50.73;100392.00;5194247;22;20709;-78
2022/06/15 13:04:10;;;;;;;3.20;1.20;;;;;;;19.67;50.58;100384.09;5163218;22;21704;-79
2022/06/15 13:06:40;;;;;;;7.27;1.47;;;;;;;19.48;51.64;100389.25;5163377;22;21759;-79
2022/06/15 13:09:14;;;;;;;2.97;1.30;;;;;;;19.21;52.74;100390.19;5197172;22;20207;-77
2022/06/15 13:11:52;;;;;;;4.23;1.43;;;;;;;19.23;51.96;100386.25;5206857;22;20201;-79
2022/06/15 13:14:22;;;;;;;6.57;1.47;;;;;;;19.47;51.86;100381.34;5180151;22;20260;-77
2022/06/15 13:17:07;;;;;;;4.00;1.20;;;;;;;19.36;51.67;100383.59;5187558;22;20201;-76
2022/06/15 13:19:40;;;;;;;7.20;1.30;;;;;;;19.38;51.39;100386.91;5192813;22;20215;-79
2022/06/15 13:22:10;;;;;;;5.40;1.50;;;;;;;19.40;52.03;100382.13;5197988;22;20205;-80
2022/06/15 13:25:07;;;;;;;2.63;1.30;;;;;;;19.52;52.34;100387.78;5162692;22;20218;-79
2022/06/15 13:27:39;;;;;;;3.13;1.10;;;;;;;19.79;50.31;100385.97;5200968;22;20237;-81
2022/06/15 13:30:27;;;;;;;3.97;1.20;;;;;;;20.15;50.59;100386.59;5178521;22;20240;-78
2022/06/15 13:32:57;;;;;;;3.60;1.50;;;;;;;20.53;48.78;100375.91;5190351;22;20201;-78
2022/06/15 13:35:30;;;;;;;5.80;1.47;;;;;;;19.84;51.84;100365.63;5193414;22;20205;-78
2022/06/15 13:38:19;;;;;;;3.07;1.30;;;;;;;19.37;53.83;100379.03;5195746;22;20370;-78
2022/06/15 13:40:58;;;;;;;4.37;1.50;;;;;;;19.37;54.84;100379.84;5173215;22;20213;-78
2022/06/15 13:43:46;;;;;;;6.47;1.70;;;;;;;19.64;54.84;100382.59;5166190;22;26000;-79
2022/06/15 13:46:31;;;;;;;3.77;1.50;;;;;;;19.56;53.29;100377.41;5187590;22;20197;-76
2022/06/15 13:49:03;;;;;;;5.47;1.77;;;;;;;19.66;54.33;100372.44;5189184;22;20470;-78
2022/06/15 13:51:33;;;;;;;4.00;1.73;;;;;;;19.82;53.47;100388.25;5166768;22;20209;-81
2022/06/15 13:54:33;;;;;;;4.33;1.60;;;;;;;19.70;53.67;100368.31;5161346;22;21714;-81
2022/06/15 13:57:22;;;;;;;5.03;1.70;;;;;;;19.59;52.38;100380.50;5192372;22;20246;-80
2022/06/15 13:59:57;;;;;;;3.57;1.53;;;;;;;19.43;54.17;100366.56;5170476;22;21516;-79
2022/06/15 14:02:46;;;;;;;3.83;1.40;;;;;;;19.43;52.20;100371.97;5206124;22;20216;-78
2022/06/15 14:05:12;;;;;;;5.30;1.90;;;;;;;19.44;53.45;100368.25;5225716;22;20239;-77
2022/06/15 14:08:04;;;;;;;7.37;2.00;;;;;;;19.51;54.96;100371.81;5237666;22;22287;-79
2022/06/15 14:11:05;;;;;;;5.73;1.60;;;;;;;19.47;53.68;100368.66;5304614;22;20207;-79
2022/06/15 14:14:04;;;;;;;6.13;1.70;;;;;;;19.48;54.33;100374.88;5221446;22;23514;-78
2022/06/15 14:16:52;;;;;;;3.60;1.60;;;;;;;19.45;54.73;100370.72;5259204;22;20201;-78
2022/06/15 14:19:20;;;;;;;5.50;1.67;;;;;;;19.60;54.38;100381.38;5265887;22;20206;-79
2022/06/15 14:22:11;;;;;;;6.80;1.60;;;;;;;19.82;52.01;100382.03;5300421;22;20201;-82
2022/06/15 14:24:40;;;;;;;16.83;4.70;;;;;;;19.81;52.78;100375.81;5323640;22;21385;-82
2022/06/15 14:27:10;;;;;;;6.47;2.00;;;;;;;19.79;51.81;100385.97;5199969;22;21774;-84
2022/06/15 14:29:44;;;;;;;5.90;1.93;;;;;;;19.82;51.77;100373.94;5224578;22;20205;-80
2022/06/15 14:32:35;;;;;;;5.80;1.43;;;;;;;19.66;51.62;100371.59;5183524;22;21670;-78
2022/06/15 14:35:14;;;;;;;3.67;1.50;;;;;;;19.55;51.13;100371.19;5248002;22;21048;-79
2022/06/15 14:37:40;;;;;;;3.77;1.63;;;;;;;19.63;52.02;100372.84;5231444;22;20676;-79
2022/06/15 14:40:23;;;;;;;6.93;1.57;;;;;;;19.62;51.72;100363.09;5204678;22;20826;-79
2022/06/15 14:42:54;;;;;;;10.80;1.63;;;;;;;19.67;52.12;100360.59;5211306;22;20201;-80
2022/06/15 14:45:32;;;;;;;6.17;1.40;;;;;;;19.73;52.72;100362.50;5253677;22;21151;-79
2022/06/15 14:48:30;;;;;;;2.67;1.43;;;;;;;19.82;52.42;100360.44;5295001;22;22561;-82
2022/06/15 14:51:14;;;;;;;4.97;1.57;;;;;;;19.96;51.37;100358.56;5227151;22;20203;-81
2022/06/15 14:53:56;;;;;;;5.00;1.30;;;;;;;20.06;51.33;100356.25;5247583;22;21741;-80
2022/06/15 14:56:26;;;;;;;5.67;1.63;;;;;;;20.03;51.17;100353.97;5235136;22;20518;-81
2022/06/15 14:59:02;;;;;;;4.03;1.57;;;;;;;20.19;50.92;100355.44;5178792;22;20201;-83
2022/06/15 15:01:30;;;;;;;4.43;1.57;;;;;;;20.26;52.07;100355.41;5191100;22;21962;-68
2022/06/15 15:04:18;;;;;;;3.53;1.30;;;;;;;20.22;50.44;100353.13;5211636;22;21627;-78
2022/06/15 15:06:58;;;;;;;2.73;1.30;;;;;;;20.12;50.96;100352.72;5193271;22;21293;-76
2022/06/15 15:09:27;;;;;;;3.50;1.40;;;;;;;20.18;50.43;100349.19;5213272;22;21272;-78
2022/06/15 15:11:54;;;;;;;6.20;1.60;;;;;;;19.96;49.61;100355.84;5224908;22;20610;-77
2022/06/15 15:14:27;;;;;;;6.27;1.60;;;;;;;19.74;50.72;100341.75;5220711;22;21854;-82
2022/06/15 15:17:04;;;;;;;4.73;1.70;;;;;;;19.98;51.46;100349.22;5203343;22;23202;-77
2022/06/15 15:19:37;;;;;;;3.90;1.40;;;;;;;20.11;51.93;100355.63;5315802;22;21597;-76
2022/06/15 15:22:09;;;;;;;10.73;3.20;;;;;;;20.33;50.83;100348.13;5231856;22;20273;-76
2022/06/15 15:24:50;;;;;;;9.27;1.70;;;;;;;20.29;52.08;100344.19;5224552;22;20257;-78
2022/06/15 15:27:16;;;;;;;4.33;1.27;;;;;;;20.12;50.78;100346.50;5319868;22;20230;-78
2022/06/15 15:35:30;;;;;;;3.83;2.10;;;;;;;20.02;52.07;100334.25;5280643;22;22953;-80
2022/06/15 15:38:17;;;;;;;4.63;1.57;;;;;;;19.78;53.62;100337.56;5241666;22;20202;-78
2022/06/15 15:40:51;;;;;;;5.40;1.40;;;;;;;19.71;53.27;100337.56;5269609;22;20611;-80
2022/06/15 15:43:19;;;;;;;5.73;1.43;;;;;;;19.52;52.94;100335.66;5240854;22;21235;-78
2022/06/15 15:45:46;;;;;;;4.47;1.40;;;;;;;19.43;54.06;100337.72;5309620;22;20273;-80
2022/06/15 15:48:13;;;;;;;5.93;1.43;;;;;;;19.47;53.80;100340.84;5319030;22;20200;-87
2022/06/15 15:50:41;;;;;;;4.70;1.77;;;;;;;19.52;53.34;100341.06;5335210;22;20212;-81
2022/06/15 15:53:08;;;;;;;5.67;2.10;;;;;;;19.59;53.91;100337.31;5309451;22;20349;-81
2022/06/15 15:55:35;;;;;;;5.23;2.10;;;;;;;19.63;53.74;100335.06;5270129;22;20202;-86
2022/06/15 15:58:03;;;;;;;5.67;1.73;;;;;;;19.56;53.38;100336.91;5217130;22;20216;-80
2022/06/15 16:00:32;;;;;;;5.93;2.33;;;;;;;19.54;53.40;100333.59;5229554;22;20245;-81
2022/06/15 16:03:01;;;;;;;5.83;1.80;;;;;;;19.27;53.84;100330.00;5289224;22;20606;-86
2022/06/15 16:05:28;;;;;;;8.67;2.30;;;;;;;19.22;53.83;100330.63;5242045;22;20208;-75
2022/06/15 16:07:56;;;;;;;5.97;1.53;;;;;;;19.09;55.67;100330.59;5179334;22;20436;-77
2022/06/15 16:10:36;;;;;;;5.10;1.67;;;;;;;18.91;56.33;100328.47;5192219;22;21703;-77
2022/06/15 16:13:04;;;;;;;7.57;1.67;;;;;;;18.92;55.82;100338.25;5184120;22;22749;-76
2022/06/15 16:15:32;;;;;;;5.37;1.60;;;;;;;19.06;54.83;100339.09;5184834;22;20201;-77
2022/06/15 16:17:59;;;;;;;7.17;1.63;;;;;;;18.89;55.95;100331.34;5255940;22;20504;-78
2022/06/15 16:20:32;;;;;;;4.53;2.00;;;;;;;18.93;56.54;100331.81;5199267;22;21120;-76
2022/06/15 16:22:59;;;;;;;8.37;1.80;;;;;;;18.83;56.44;100331.34;5198894;22;20532;-74
2022/06/15 16:25:27;;;;;;;6.63;1.90;;;;;;;18.84;56.46;100328.44;5197509;22;22888;-78
2022/06/15 16:27:55;;;;;;;8.57;2.37;;;;;;;18.85;55.59;100332.81;5265058;22;20286;-76
2022/06/15 16:30:22;;;;;;;5.00;2.40;;;;;;;18.72;56.75;100328.16;5210466;22;20711;-79
2022/06/15 16:32:49;;;;;;;7.40;2.70;;;;;;;18.77;57.23;100328.41;5183497;22;22573;-77
2022/06/15 16:35:19;;;;;;;6.67;2.77;;;;;;;18.80;57.45;100319.13;5189772;22;20656;-76
2022/06/15 16:37:47;;;;;;;5.10;2.20;;;;;;;18.78;56.77;100321.19;5253497;22;20275;-80
2022/06/15 16:40:15;;;;;;;6.07;1.87;;;;;;;18.90;56.95;100324.94;5197525;22;20200;-79
2022/06/15 16:42:42;;;;;;;4.93;1.90;;;;;;;19.07;57.01;100321.88;5225453;22;20821;-77
2022/06/15 16:45:10;;;;;;;5.97;2.00;;;;;;;19.08;56.15;100320.84;5173194;22;20300;-80
2022/06/15 16:47:36;;;;;;;3.30;1.70;;;;;;;19.03;55.54;100320.63;5157617;22;20492;-79
2022/06/15 16:50:04;;;;;;;5.30;2.17;;;;;;;19.05;56.85;100322.06;5194877;22;20205;-78
2022/06/15 16:52:31;;;;;;;8.37;2.33;;;;;;;19.07;56.54;100317.31;5182902;22;20275;-78
2022/06/15 16:54:58;;;;;;;8.10;2.33;;;;;;;18.97;56.69;100319.59;5194634;22;20602;-80
2022/06/15 16:57:25;;;;;;;7.00;2.60;;;;;;;19.01;56.12;100315.47;5186932;22;20210;-78
2022/06/15 16:59:52;;;;;;;7.70;2.70;;;;;;;19.13;56.10;100313.00;5205850;22;20254;-78
2022/06/15 17:02:24;;;;;;;7.40;2.20;;;;;;;19.06;55.64;100312.13;5167801;22;20213;-76
2022/06/15 17:04:51;;;;;;;7.97;2.27;;;;;;;19.16;56.12;100304.47;5214663;22;23229;-82
2022/06/15 17:07:20;;;;;;;7.03;1.60;;;;;;;19.23;55.13;100305.31;5257924;22;20318;-81
2022/06/15 17:09:48;;;;;;;5.70;1.60;;;;;;;19.28;55.93;100305.53;5196461;22;21101;-81
2022/06/15 17:12:15;;;;;;;8.10;2.37;;;;;;;19.54;55.63;100314.69;5256234;22;21879;-86
2022/06/15 17:14:51;;;;;;;6.87;2.17;;;;;;;19.66;54.78;100312.22;5392293;22;20476;-74
2022/06/15 17:17:25;;;;;;;9.67;2.40;;;;;;;19.77;54.33;100308.91;5157646;22;21189;-73
2022/06/15 17:19:54;;;;;;;7.73;2.43;;;;;;;19.94;53.59;100299.34;5160413;22;20419;-76
2022/06/15 17:22:21;;;;;;;11.73;2.60;;;;;;;20.17;52.62;100303.47;5172279;22;20200;-75
2022/06/15 17:25:08;;;;;;;5.70;1.80;;;;;;;20.56;51.70;100304.44;5183481;22;21679;-72
2022/06/15 17:27:35;;;;;;;8.17;2.17;;;;;;;20.54;50.76;100301.91;5194026;22;20205;-74
2022/06/15 17:30:04;;;;;;;6.20;2.00;;;;;;;20.47;50.83;100301.09;5162434;22;23413;-73
2022/06/15 17:32:30;;;;;;;7.13;1.70;;;;;;;20.15;51.85;100311.78;5162518;22;25654;-74
2022/06/15 17:34:57;;;;;;;4.23;1.67;;;;;;;20.12;51.06;100312.19;5159145;22;20237;-73
2022/06/15 17:37:24;;;;;;;6.63;1.80;;;;;;;19.90;51.72;100308.91;5156410;22;20204;-72
2022/06/15 17:39:51;;;;;;;5.33;1.87;;;;;;;19.95;51.96;100305.59;5140063;22;20201;-72
2022/06/15 17:42:17;;;;;;;5.67;2.10;;;;;;;19.85;52.17;100305.16;5117200;22;20283;-71
2022/06/15 17:44:45;;;;;;;5.43;2.40;;;;;;;20.09;51.74;100307.22;5150249;22;22918;-73
2022/06/15 17:47:12;;;;;;;6.10;2.40;;;;;;;20.03;51.70;100303.47;5138604;22;22142;-72
2022/06/15 17:49:39;;;;;;;6.63;2.20;;;;;;;20.00;51.77;100305.78;5139143;22;20210;-73
2022/06/15 17:52:06;;;;;;;6.40;2.17;;;;;;;20.07;52.16;100308.47;5157658;22;20213;-75
2022/06/15 17:54:32;;;;;;;3.73;1.80;;;;;;;20.04;52.33;100307.00;5155990;22;20221;-71
2022/06/15 17:57:00;;;;;;;5.17;2.80;;;;;;;19.74;52.75;100301.25;5136021;22;20205;-75
2022/06/15 17:59:26;;;;;;;5.83;2.33;;;;;;;19.67;53.27;100303.91;5161855;22;20313;-75
2022/06/15 18:01:54;;;;;;;10.63;3.00;;;;;;;19.62;53.57;100303.72;5180833;22;20203;-74
2022/06/15 18:04:22;;;;;;;8.57;3.30;;;;;;;19.35;54.58;100300.97;5169623;22;20264;-74
2022/06/15 18:06:50;;;;;;;8.50;4.10;;;;;;;19.35;54.48;100300.97;5178694;22;20235;-74
2022/06/15 18:09:17;;;;;;;8.43;3.80;;;;;;;19.33;54.90;100294.94;5156234;22;21112;-72
2022/06/15 18:11:45;;;;;;;9.33;3.60;;;;;;;19.43;54.74;100299.13;5183264;22;20265;-76
2022/06/15 18:14:16;;;;;;;16.70;7.87;;;;;;;19.24;56.04;100298.06;5161509;22;21743;-75
2022/06/15 18:16:44;;;;;;;12.90;6.73;;;;;;;19.24;56.14;100300.75;5172756;22;20202;-76
2022/06/15 18:19:16;;;;;;;14.40;6.63;;;;;;;19.19;56.37;100307.59;5197600;22;20260;-76
2022/06/15 18:21:45;;;;;;;8.93;4.77;;;;;;;19.06;56.58;100293.25;5190338;22;20215;-74
2022/06/15 18:24:13;;;;;;;8.77;4.00;;;;;;;18.87;57.69;100298.41;5186690;22;21610;-77
2022/06/15 18:26:41;;;;;;;9.67;3.77;;;;;;;18.75;58.18;100298.13;5164730;22;20211;-74
2022/06/15 18:29:08;;;;;;;9.17;3.20;;;;;;;18.60;58.63;100296.59;5139040;22;21239;-74
2022/06/15 18:31:37;;;;;;;10.23;4.17;;;;;;;18.53;59.36;100297.41;5194420;22;20201;-76
2022/06/15 18:34:06;;;;;;;9.07;3.87;;;;;;;18.42;59.48;100289.88;5174493;22;20214;-77
2022/06/15 18:36:34;;;;;;;8.93;4.53;;;;;;;18.38;59.97;100290.47;5181480;22;20278;-74
2022/06/15 18:39:01;;;;;;;9.73;5.27;;;;;;;18.27;60.88;100289.19;5252235;22;20201;-75
2022/06/15 18:41:29;;;;;;;15.30;7.70;;;;;;;18.19;61.27;100289.34;5210787;22;20254;-74
2022/06/15 18:49:28;;;;;;;11.47;5.63;;;;;;;17.60;62.99;100296.75;5237032;22;20917;-76
2022/06/15 18:51:55;;;;;;;8.90;4.90;;;;;;;17.45;63.50;100296.03;5237789;22;20458;-76
2022/06/15 18:54:27;;;;;;;8.57;4.27;;;;;;;17.41;65.54;100297.44;5330086;22;20905;-78
2022/06/15 18:56:55;;;;;;;11.93;5.50;;;;;;;17.34;67.39;100299.22;5275456;22;20688;-75
2022/06/15 18:59:22;;;;;;;7.30;4.10;;;;;;;17.33;66.91;100305.66;5248007;22;20201;-76
2022/06/15 19:01:48;;;;;;;8.57;4.67;;;;;;;17.29;66.66;100300.63;5293269;22;20197;-71
2022/06/15 19:04:15;;;;;;;14.20;6.53;;;;;;;17.21;67.67;100308.84;5201544;22;20227;-71
2022/06/15 19:06:42;;;;;;;11.60;6.20;;;;;;;17.17;69.05;100312.94;5164094;22;20294;-73
2022/06/15 19:09:09;;;;;;;10.87;6.57;;;;;;;17.00;71.44;100308.81;5208534;22;20400;-78
2022/06/15 19:11:41;;;;;;;15.57;6.37;;;;;;;16.96;72.28;100307.53;5188191;22;20275;-72
2022/06/15 19:14:09;;;;;;;11.90;6.40;;;;;;;16.79;73.79;100309.63;5171140;22;20215;-72
2022/06/15 19:16:36;;;;;;;10.37;5.63;;;;;;;16.84;72.18;100317.94;5241561;22;20204;-72
2022/06/15 19:19:02;;;;;;;12.40;6.50;;;;;;;16.71;73.20;100315.06;5205214;22;20681;-74
2022/06/15 19:21:29;;;;;;;12.40;6.50;;;;;;;16.59;73.41;100318.22;5172522;22;20224;-75
2022/06/15 19:23:56;;;;;;;13.23;6.17;;;;;;;16.48;73.71;100326.75;5156027;22;20201;-73
2022/06/15 19:26:22;;;;;;;12.47;6.00;;;;;;;16.38;74.84;100318.97;5177825;22;21601;-74
2022/06/15 19:28:49;;;;;;;11.40;5.60;;;;;;;16.33;74.84;100315.19;5149118;22;20206;-74
2022/06/15 19:31:16;;;;;;;12.40;5.60;;;;;;;16.25;75.60;100319.63;5177649;22;21300;-77
2022/06/15 19:33:44;;;;;;;13.13;5.63;;;;;;;16.21;76.32;100320.19;5140743;22;21451;-73
2022/06/15 19:36:11;;;;;;;14.97;5.83;;;;;;;16.24;75.69;100317.13;5177304;22;20291;-75
2022/06/15 19:38:37;;;;;;;11.37;5.97;;;;;;;16.02;78.09;100324.25;5132915;22;20212;-75
2022/06/15 19:41:05;;;;;;;19.23;5.90;;;;;;;15.97;79.01;100324.81;5171187;22;20251;-76
2022/06/15 19:43:37;;;;;;;13.53;4.80;;;;;;;16.10;76.35;100324.16;5182242;22;20207;-73
2022/06/15 19:46:06;;;;;;;13.93;5.43;;;;;;;15.98;76.65;100326.44;5182428;22;20204;-72
2022/06/15 19:48:32;;;;;;;12.73;4.77;;;;;;;15.90;77.62;100325.72;5173567;22;20285;-73
2022/06/15 19:50:59;;;;;;;14.17;5.33;;;;;;;15.88;77.81;100317.84;5137870;22;20213;-76
2022/06/15 19:53:27;;;;;;;11.87;4.57;;;;;;;15.84;78.06;100319.22;5154106;22;20208;-71
2022/06/15 19:55:55;;;;;;;14.10;5.23;;;;;;;15.75;78.10;100317.63;5155594;22;20204;-73
2022/06/15 19:58:30;;;;;;;13.87;5.77;;;;;;;15.75;78.86;100321.13;5167323;22;20972;-74
2022/06/15 20:00:56;;;;;;;11.63;5.43;;;;;;;15.71;79.99;100316.31;5151166;22;20197;-74
2022/06/15 20:03:23;;;;;;;19.13;6.27;;;;;;;15.60;80.45;100315.72;5162419;22;20203;-72
2022/06/15 20:05:50;;;;;;;14.47;4.90;;;;;;;15.57;81.01;100318.75;5177616;22;21462;-74
2022/06/15 20:08:17;;;;;;;21.77;5.43;;;;;;;15.40;82.57;100318.06;5184429;22;22135;-75
2022/06/15 20:10:43;;;;;;;13.57;5.03;;;;;;;15.55;82.13;100317.28;5134818;22;26079;-71
2022/06/15 20:13:10;;;;;;;17.40;5.03;;;;;;;15.47;82.23;100318.16;5178484;22;20284;-74
2022/06/15 20:15:38;;;;;;;21.67;5.23;;;;;;;15.50;82.48;100322.31;5167358;22;20958;-72
2022/06/15 20:18:10;;;;;;;22.80;5.20;;;;;;;15.43;82.29;100307.97;5181796;22;20286;-72
2022/06/15 20:20:42;;;;;;;21.63;5.37;;;;;;;15.28;83.68;100315.97;5152460;22;20201;-72
2022/06/15 20:23:12;;;;;;;18.13;4.93;;;;;;;15.43;82.62;100316.88;5195156;22;20205;-75
2022/06/15 20:25:45;;;;;;;14.90;5.10;;;;;;;15.32;82.93;100317.28;5215574;22;20209;-74
2022/06/15 20:28:18;;;;;;;13.20;5.10;;;;;;;15.30;82.54;100319.31;5209782;22;20206;-71
2022/06/15 20:30:45;;;;;;;15.00;4.73;;;;;;;15.18;82.75;100319.72;5161003;22;20197;-72
2022/06/15 20:33:11;;;;;;;13.53;5.03;;;;;;;15.14;82.65;100321.06;5161963;22;20205;-73
2022/06/15 20:35:39;;;;;;;9.43;4.60;;;;;;;15.09;83.41;100318.09;5177649;22;20577;-75
2022/06/15 20:38:06;;;;;;;13.83;4.30;;;;;;;15.03;83.02;100324.19;5147823;22;20329;-73
2022/06/15 20:40:35;;;;;;;12.50;4.90;;;;;;;15.01;83.04;100320.84;5183861;22;25569;-74
2022/06/15 20:43:04;;;;;;;19.97;5.00;;;;;;;14.99;83.63;100323.69;5205713;22;20674;-74
2022/06/15 20:45:33;;;;;;;12.93;5.00;;;;;;;14.97;83.81;100319.50;5221132;22;20201;-72
2022/06/15 20:48:02;;;;;;;14.70;5.20;;;;;;;14.90;84.11;100315.88;5150414;22;20221;-73
2022/06/15 20:50:31;;;;;;;18.77;5.17;;;;;;;14.82;84.64;100313.22;5134429;22;20205;-73
2022/06/15 20:52:58;;;;;;;19.93;5.53;;;;;;;14.80;84.96;100317.91;5147803;22;21777;-72
2022/06/15 20:55:25;;;;;;;17.30;5.90;;;;;;;14.78;85.55;100310.91;5178635;22;20441;-73
2022/06/15 20:57:53;;;;;;;11.43;4.57;;;;;;;14.80;85.51;100313.41;5194461;22;20290;-73
2022/06/15 21:00:19;;;;;;;12.70;4.87;;;;;;;14.96;83.88;100312.47;5172133;22;21238;-73
2022/06/15 21:02:46;;;;;;;16.97;5.20;;;;;;;15.01;83.02;100312.81;5162571;22;21204;-75
2022/06/15 21:05:18;;;;;;;12.03;4.40;;;;;;;14.91;83.37;100309.50;5175733;22;22229;-76
2022/06/15 21:07:45;;;;;;;12.93;5.17;;;;;;;14.90;83.76;100307.84;5171795;22;21526;-73
2022/06/15 21:18:27;;;;;;;15.30;5.47;;;;;;;14.65;85.21;100307.13;5151123;22;20208;-73
2022/06/15 21:20:53;;;;;;;19.90;5.57;;;;;;;14.63;85.40;100303.78;5158907;22;20914;-71
2022/06/15 21:23:20;;;;;;;16.90;5.57;;;;;;;14.48;86.68;100303.66;5208397;22;20205;-72
2022/06/15 21:25:47;;;;;;;9.67;4.70;;;;;;;14.49;86.75;100305.31;5202423;22;20197;-73
2022/06/15 21:28:14;;;;;;;14.87;5.60;;;;;;;14.44;86.92;100302.31;5162902;22;21670;-73
2022/06/15 21:30:42;;;;;;;11.17;5.10;;;;;;;14.39;87.22;100310.88;5170451;22;20212;-73
2022/06/15 21:33:09;;;;;;;13.13;5.60;;;;;;;14.34;87.67;100303.34;5155552;22;20204;-74
2022/06/15 21:35:37;;;;;;;12.47;5.57;;;;;;;14.34;87.62;100310.56;5163075;22;21702;-74